Woosung, Illinois
Current Conditions -  °F | °C
As of 10:15 PM on Sunday 23 Nov 2014 (Local Time) from KSQI Reporting Station
Overcast Overcast  
Wind Chill: 48°   Ceiling: 300
Heat Index: 48°   Visibility: 1mi
Dew Point: 46°   Wind: 0mph
Humidity: 93%   Direction: NA
Pressure: 29.16"   Gusts: NA
Location:  41.9°N, 89.54°W
Report Text: KSQI 240415Z 00000KT 1SM OVC003 09/08 A2916 RMK AO1
Loading
Personal Weather Stations






























Interactive Weather Map New forecast layout! Learn more

10-Day Weather Forecast

Advertisements
Track Severe Weather on mobile